createdAt,value
2023-02-13T00:01:53.359Z,103297.09
2023-02-13T00:05:54.841Z,103297.38
2023-02-13T00:09:56.296Z,103297.38
2023-02-13T00:13:58.397Z,103304.56
2023-02-13T00:18:00.052Z,103301.81
2023-02-13T00:22:02.615Z,103294.94
2023-02-13T00:26:09.589Z,103298.22
2023-02-13T00:30:11.665Z,103290.50
2023-02-13T00:34:13.188Z,103288.81
2023-02-13T00:38:14.652Z,103280.81
2023-02-13T00:42:16.115Z,103281.06
2023-02-13T00:46:18.378Z,103281.91
2023-02-13T00:50:19.852Z,103276.97
2023-02-13T00:54:21.269Z,103273.34
2023-02-13T00:58:23.490Z,103275.03
2023-02-13T01:02:25.332Z,103272.81
2023-02-13T01:06:26.841Z,103270.84
2023-02-13T01:10:28.363Z,103272.19
2023-02-13T01:14:29.865Z,103269.97
2023-02-13T01:18:31.395Z,103261.72
2023-02-13T01:22:32.973Z,103265.03
2023-02-13T01:26:34.412Z,103261.72
2023-02-13T01:30:36.624Z,103263.16
2023-02-13T01:34:38.056Z,103260.66
2023-02-13T01:38:40.452Z,103260.38
2023-02-13T01:42:41.928Z,103257.09
2023-02-13T01:46:44.231Z,103249.09
2023-02-13T01:50:52.618Z,103255.72
2023-02-13T01:54:54.287Z,103249.91
2023-02-13T01:58:59.977Z,103250.19
2023-02-13T02:03:08.806Z,103249.03
2023-02-13T02:07:23.463Z,103243.28
2023-02-13T02:12:03.067Z,103245.44
2023-02-13T02:16:04.911Z,103251.84
2023-02-13T02:20:15.558Z,103252.94
2023-02-13T02:24:40.119Z,103257.91
2023-02-13T02:29:32.256Z,103258.50
2023-02-13T02:34:06.981Z,103262.63
2023-02-13T02:38:43.047Z,103271.44
2023-02-13T02:43:21.984Z,103276.69
2023-02-13T02:48:24.164Z,103271.72
2023-02-13T02:52:30.958Z,103276.16
2023-02-13T02:56:40.910Z,103278.34
2023-02-13T03:01:02.182Z,103273.38
2023-02-13T03:05:22.616Z,103272.00
2023-02-13T03:09:45.301Z,103281.66
2023-02-13T03:13:48.056Z,103281.38
2023-02-13T03:18:07.789Z,103288.84
2023-02-13T03:22:19.315Z,103284.97
2023-02-13T03:26:20.628Z,103281.66
2023-02-13T03:30:38.507Z,103284.16
2023-02-13T03:35:02.008Z,103284.69
2023-02-13T03:39:11.728Z,103282.50
2023-02-13T03:43:14.952Z,103274.19
2023-02-13T03:47:16.382Z,103279.72
2023-02-13T03:51:40.819Z,103281.09
2023-02-13T03:56:04.352Z,103275.31
2023-02-13T04:00:07.862Z,103276.13
2023-02-13T04:04:32.438Z,103271.19
2023-02-13T04:08:33.894Z,103267.31
2023-02-13T04:12:54.076Z,103270.63
2023-02-13T04:17:06.052Z,103263.16
2023-02-13T04:21:07.894Z,103259.88
2023-02-13T04:25:10.335Z,103256.28
2023-02-13T04:29:11.659Z,103255.69
2023-02-13T04:33:13.007Z,103255.44
2023-02-13T04:37:14.344Z,103258.47
2023-02-13T04:41:15.728Z,103253.72
2023-02-13T04:45:17.425Z,103251.56
2023-02-13T04:49:18.762Z,103236.41
2023-02-13T04:53:20.150Z,103244.97
2023-02-13T04:57:21.480Z,103231.44
2023-02-13T05:01:22.950Z,103224.25
2023-02-13T05:05:24.329Z,103223.16
2023-02-13T05:09:25.712Z,103226.19
2023-02-13T05:13:27.081Z,103234.19
2023-02-13T05:17:28.490Z,103233.91
2023-02-13T05:21:48.314Z,103238.06
2023-02-13T05:25:49.954Z,103235.84
2023-02-13T05:29:51.316Z,103229.78
2023-02-13T05:33:52.602Z,103230.88
2023-02-13T05:37:53.949Z,103230.31
2023-02-13T05:41:55.284Z,103232.28
2023-02-13T05:46:03.873Z,103240.25
2023-02-13T05:50:05.624Z,103242.47
2023-02-13T05:54:06.984Z,103241.91
2023-02-13T05:58:09.484Z,103245.25
2023-02-13T06:02:11.164Z,103250.19
2023-02-13T06:06:12.493Z,103260.41
2023-02-13T06:10:13.805Z,103260.91
2023-02-13T06:14:15.308Z,103267.88
2023-02-13T06:18:16.637Z,103262.09
2023-02-13T06:22:17.987Z,103265.91
2023-02-13T06:26:19.308Z,103261.50
2023-02-13T06:30:20.681Z,103270.59
2023-02-13T06:34:21.975Z,103278.00
2023-02-13T06:38:24.209Z,103272.19
2023-02-13T06:42:25.647Z,103277.88
2023-02-13T06:46:26.996Z,103283.38
2023-02-13T06:50:28.339Z,103282.53
2023-02-13T06:54:46.001Z,103293.03
2023-02-13T06:58:48.459Z,103300.69
2023-02-13T07:02:49.805Z,103302.41
2023-02-13T07:06:51.190Z,103299.75
2023-02-13T07:10:52.514Z,103310.56
2023-02-13T07:14:53.876Z,103315.88
2023-02-13T07:18:55.193Z,103313.34
2023-02-13T07:23:04.089Z,103318.06
2023-02-13T07:27:05.679Z,103310.66
2023-02-13T07:31:07.527Z,103317.22
2023-02-13T07:35:08.954Z,103324.91
2023-02-13T07:39:10.265Z,103323.31
2023-02-13T07:43:12.553Z,103317.06
2023-02-13T07:47:13.891Z,103316.56
2023-02-13T07:51:16.358Z,103318.56
2023-02-13T07:55:17.751Z,103328.00
2023-02-13T07:59:19.136Z,103329.03
2023-02-13T08:03:20.480Z,103328.22
2023-02-13T08:07:21.810Z,103331.72
2023-02-13T08:11:50.904Z,103327.47
2023-02-13T08:15:52.211Z,103342.91
2023-02-13T08:19:53.567Z,103333.22
2023-02-13T08:23:54.916Z,103336.78
2023-02-13T08:27:56.490Z,103331.31
2023-02-13T08:31:57.959Z,103317.53
2023-02-13T08:35:59.485Z,103330.16
2023-02-13T08:40:00.992Z,103334.34
2023-02-13T08:44:02.362Z,103329.31
2023-02-13T08:48:04.187Z,103335.16
2023-02-13T08:52:05.807Z,103332.66
2023-02-13T08:56:07.257Z,103325.53
2023-02-13T09:00:09.068Z,103329.03
2023-02-13T09:04:10.562Z,103326.38
2023-02-13T09:08:13.680Z,103324.44
2023-02-13T09:12:15.040Z,103322.50
2023-02-13T09:16:16.560Z,103320.03
2023-02-13T09:20:18.099Z,103327.91
2023-02-13T09:24:19.423Z,103331.09
2023-02-13T09:28:20.846Z,103337.97
2023-02-13T09:32:22.278Z,103336.06
2023-02-13T09:36:24.474Z,103334.38
2023-02-13T09:40:29.167Z,103339.06
2023-02-13T09:44:38.340Z,103339.63
2023-02-13T09:48:42.010Z,103333.84
2023-02-13T09:52:44.516Z,103342.94
2023-02-13T09:56:54.580Z,103323.88
2023-02-13T10:00:58.029Z,103336.88
2023-02-13T10:05:17.021Z,103339.63
2023-02-13T10:09:33.444Z,103327.19
2023-02-13T10:13:50.711Z,103324.72
2023-02-13T10:17:59.399Z,103328.56
2023-02-13T10:22:04.802Z,103334.09
2023-02-13T10:26:11.838Z,103332.19
2023-02-13T10:30:22.063Z,103332.47
2023-02-13T10:34:26.761Z,103333.78
2023-02-13T10:38:30.177Z,103329.16
2023-02-13T10:42:31.457Z,103314.16
2023-02-13T10:46:51.731Z,103319.31
2023-02-13T10:51:13.212Z,103301.91
2023-02-13T10:55:20.742Z,103302.75
2023-02-13T10:59:25.191Z,103307.25
2023-02-13T11:03:27.775Z,103301.38
2023-02-13T11:07:30.319Z,103299.28
2023-02-13T11:11:36.257Z,103298.72
2023-02-13T11:15:37.714Z,103294.75
2023-02-13T11:19:40.146Z,103304.22
2023-02-13T11:23:45.850Z,103302.34
2023-02-13T11:27:48.045Z,103294.75
2023-02-13T11:32:01.680Z,103289.09
2023-02-13T11:36:11.431Z,103286.28
2023-02-13T11:40:29.588Z,103286.56
2023-02-13T11:44:32.450Z,103280.50
2023-02-13T11:48:34.010Z,103271.56
2023-02-13T11:52:36.411Z,103271.03
2023-02-13T11:57:03.320Z,103271.31
2023-02-13T12:01:11.546Z,103269.31
2023-02-13T12:05:18.512Z,103270.09
2023-02-13T12:09:19.895Z,103263.88
2023-02-13T12:13:27.408Z,103258.91
2023-02-13T12:17:32.319Z,103262.72
2023-02-13T12:21:54.260Z,103258.75
2023-02-13T12:25:55.578Z,103256.16
2023-02-13T12:30:03.124Z,103255.50
2023-02-13T12:34:14.877Z,103258.44
2023-02-13T12:38:34.810Z,103254.59
2023-02-13T12:43:02.360Z,103257.09
2023-02-13T12:47:24.882Z,103257.97
2023-02-13T12:51:36.828Z,103253.78
2023-02-13T12:55:41.157Z,103260.75
2023-02-13T12:59:48.677Z,103255.19
2023-02-13T13:04:08.816Z,103254.38
2023-02-13T13:08:29.008Z,103256.03
2023-02-13T13:12:33.381Z,103248.41
2023-02-13T13:16:53.582Z,103249.91
2023-02-13T13:20:59.042Z,103229.72
2023-02-13T13:25:09.634Z,103238.75
2023-02-13T13:29:15.364Z,103239.84
2023-02-13T13:33:19.404Z,103251.50
2023-02-13T13:37:30.600Z,103250.00
2023-02-13T13:41:38.065Z,103247.78
2023-02-13T13:45:45.557Z,103243.69
2023-02-13T13:49:53.580Z,103249.84
2023-02-13T13:54:00.943Z,103246.06
2023-02-13T13:58:02.394Z,103250.78
2023-02-13T14:02:23.750Z,103249.25
2023-02-13T14:06:48.150Z,103246.38
2023-02-13T14:10:49.453Z,103231.81
2023-02-13T14:14:54.332Z,103225.19
2023-02-13T14:18:55.671Z,103224.59
2023-02-13T14:23:06.039Z,103221.84
2023-02-13T14:27:19.376Z,103224.81
2023-02-13T14:31:27.847Z,103222.75
2023-02-13T14:35:31.009Z,103202.25
2023-02-13T14:39:35.889Z,103202.53
2023-02-13T14:43:41.177Z,103212.22
2023-02-13T14:47:45.097Z,103205.59
2023-02-13T14:51:54.064Z,103197.03
2023-02-13T14:56:27.952Z,103204.19
2023-02-13T15:00:37.560Z,103197.97
2023-02-13T15:04:41.567Z,103204.28
2023-02-13T15:08:47.047Z,103188.97
2023-02-13T15:12:55.949Z,103187.63
2023-02-13T15:17:17.502Z,103188.66
2023-02-13T15:21:20.692Z,103192.75
2023-02-13T15:25:25.834Z,103184.88
2023-02-13T15:29:38.024Z,103179.09
2023-02-13T15:33:50.328Z,103169.94
2023-02-13T15:37:51.956Z,103172.03
2023-02-13T15:41:58.402Z,103163.91
2023-02-13T15:46:08.331Z,103152.84
2023-02-13T15:50:33.113Z,103152.84
2023-02-13T15:54:35.594Z,103152.34
2023-02-13T15:58:37.095Z,103159.59
2023-02-13T16:02:46.200Z,103155.06
2023-02-13T16:06:49.007Z,103144.69
2023-02-13T16:10:50.348Z,103167.59
2023-02-13T16:14:56.338Z,103172.78
2023-02-13T16:18:57.883Z,103163.44
2023-02-13T16:23:08.388Z,103169.31
2023-02-13T16:27:14.412Z,103162.03
2023-02-13T16:31:16.888Z,103181.84
2023-02-13T16:35:28.888Z,103187.09
2023-02-13T16:39:31.662Z,103181.84
2023-02-13T16:43:38.870Z,103182.69
2023-02-13T16:47:40.265Z,103178.97
2023-02-13T16:51:41.624Z,103185.00
2023-02-13T16:55:43.536Z,103178.94
2023-02-13T16:59:48.078Z,103177.28
2023-02-13T17:03:49.428Z,103182.34
2023-02-13T17:07:52.969Z,103190.31
2023-02-13T17:11:54.337Z,103186.69
2023-02-13T17:15:55.719Z,103185.00
2023-02-13T17:19:57.525Z,103194.66
2023-02-13T17:23:58.860Z,103199.34
2023-02-13T17:28:01.630Z,103200.47
2023-02-13T17:32:03.131Z,103194.41
2023-02-13T17:36:04.712Z,103190.00
2023-02-13T17:40:07.082Z,103197.09
2023-02-13T17:44:12.059Z,103189.38
2023-02-13T17:48:13.618Z,103195.84
2023-02-13T17:52:17.212Z,103200.44
2023-02-13T17:56:18.523Z,103201.88
2023-02-13T18:00:20.644Z,103203.78
2023-02-13T18:04:22.077Z,103202.19
2023-02-13T18:08:23.726Z,103204.06
2023-02-13T18:12:25.062Z,103200.75
2023-02-13T18:16:26.462Z,103198.28
2023-02-13T18:20:27.847Z,103196.34
2023-02-13T18:24:32.835Z,103203.53
2023-02-13T18:28:34.634Z,103200.25
2023-02-13T18:32:35.993Z,103206.06
2023-02-13T18:36:37.331Z,103204.06
2023-02-13T18:40:39.399Z,103199.69
2023-02-13T18:44:41.150Z,103208.22
2023-02-13T18:48:42.517Z,103201.84
2023-02-13T18:52:43.940Z,103198.03
2023-02-13T18:56:45.849Z,103196.63
2023-02-13T19:00:47.250Z,103188.13
2023-02-13T19:04:48.703Z,103196.38
2023-02-13T19:08:50.171Z,103196.06
2023-02-13T19:12:51.596Z,103190.19
2023-02-13T19:16:52.913Z,103189.97
2023-02-13T19:20:59.002Z,103194.16
2023-02-13T19:25:01.536Z,103186.69
2023-02-13T19:29:05.923Z,103194.69
2023-02-13T19:33:07.337Z,103184.19
2023-02-13T19:37:11.850Z,103200.19
2023-02-13T19:41:17.393Z,103200.50
2023-02-13T19:45:19.050Z,103209.88
2023-02-13T19:49:22.392Z,103217.03
2023-02-13T19:53:26.157Z,103215.66
2023-02-13T19:57:28.004Z,103217.56
2023-02-13T20:01:30.181Z,103206.81
2023-02-13T20:05:32.397Z,103212.09
2023-02-13T20:09:35.276Z,103215.69
2023-02-13T20:13:36.663Z,103219.28
2023-02-13T20:17:38.818Z,103213.47
2023-02-13T20:21:44.062Z,103215.72
2023-02-13T20:25:45.463Z,103225.06
2023-02-13T20:29:46.824Z,103228.13
2023-02-13T20:33:49.240Z,103231.13
2023-02-13T20:37:50.739Z,103241.63
2023-02-13T20:41:52.213Z,103233.91
2023-02-13T20:45:56.057Z,103235.22
2023-02-13T20:49:57.605Z,103242.19
2023-02-13T20:54:00.257Z,103245.22
2023-02-13T20:58:01.764Z,103246.31
2023-02-13T21:02:03.169Z,103248.28
2023-02-13T21:06:04.888Z,103252.97
2023-02-13T21:10:06.776Z,103256.28
2023-02-13T21:14:08.261Z,103249.09
2023-02-13T21:18:09.618Z,103261.78
2023-02-13T21:22:12.047Z,103266.75
2023-02-13T21:26:14.909Z,103270.63
2023-02-13T21:30:16.396Z,103268.97
2023-02-13T21:34:18.059Z,103258.75
2023-02-13T21:38:19.520Z,103268.41
2023-02-13T21:42:20.906Z,103256.28
2023-02-13T21:46:22.417Z,103263.19
2023-02-13T21:50:23.976Z,103260.13
2023-02-13T21:54:25.325Z,103254.06
2023-02-13T21:58:27.681Z,103263.19
2023-02-13T22:02:29.375Z,103265.94
2023-02-13T22:06:32.653Z,103256.25
2023-02-13T22:10:33.993Z,103262.63
2023-02-13T22:14:35.395Z,103265.06
2023-02-13T22:18:41.398Z,103257.38
2023-02-13T22:22:42.736Z,103277.50
2023-02-13T22:26:47.245Z,103280.00
2023-02-13T22:30:48.813Z,103274.22
2023-02-13T22:34:50.280Z,103281.13
2023-02-13T22:38:51.670Z,103284.41
2023-02-13T22:42:53.008Z,103283.88
2023-02-13T22:46:54.436Z,103287.47
2023-02-13T22:50:55.809Z,103282.50
2023-02-13T22:54:57.151Z,103286.09
2023-02-13T22:58:58.940Z,103279.16
2023-02-13T23:03:00.326Z,103283.56
2023-02-13T23:07:01.684Z,103270.63
2023-02-13T23:11:25.878Z,103280.00
2023-02-13T23:15:27.406Z,103279.72
2023-02-13T23:19:29.860Z,103272.56
2023-02-13T23:23:31.288Z,103274.47
2023-02-13T23:27:33.098Z,103279.69
2023-02-13T23:31:34.570Z,103281.63
2023-02-13T23:35:36.134Z,103283.84
2023-02-13T23:39:37.514Z,103282.22
2023-02-13T23:43:38.924Z,103286.03
2023-02-13T23:47:40.349Z,103284.41
2023-02-13T23:51:41.795Z,103286.88
2023-02-13T23:55:43.167Z,103288.28
2023-02-13T23:59:44.494Z,103289.13
